sensor_id;sensor_type;location;lat;lon;timestamp;temperature;humidity
13798;DHT22;6970;51.340;3.240;2023-02-15T00:01:51;6.60;99.90
13798;DHT22;6970;51.340;3.240;2023-02-15T00:04:22;6.50;99.90
13798;DHT22;6970;51.340;3.240;2023-02-15T00:06:49;6.50;99.90
13798;DHT22;6970;51.340;3.240;2023-02-15T00:09:16;6.50;99.90
13798;DHT22;6970;51.340;3.240;2023-02-15T00:11:43;6.50;99.90
13798;DHT22;6970;51.340;3.240;2023-02-15T00:14:22;6.40;99.90
13798;DHT22;6970;51.340;3.240;2023-02-15T00:16:50;6.40;99.90
13798;DHT22;6970;51.340;3.240;2023-02-15T00:19:19;6.30;99.90
13798;DHT22;6970;51.340;3.240;2023-02-15T00:21:47;6.30;99.90
13798;DHT22;6970;51.340;3.240;2023-02-15T00:24:17;6.20;99.90
13798;DHT22;6970;51.340;3.240;2023-02-15T00:26:45;6.20;99.90
13798;DHT22;6970;51.340;3.240;2023-02-15T00:29:14;6.10;99.90
13798;DHT22;6970;51.340;3.240;2023-02-15T00:31:42;6.10;99.90
13798;DHT22;6970;51.340;3.240;2023-02-15T00:34:16;6.10;99.90
13798;DHT22;6970;51.340;3.240;2023-02-15T00:36:44;6.00;99.90
13798;DHT22;6970;51.340;3.240;2023-02-15T00:39:11;6.00;99.90
13798;DHT22;6970;51.340;3.240;2023-02-15T00:41:39;6.00;99.90
13798;DHT22;6970;51.340;3.240;2023-02-15T00:44:06;6.00;99.90
13798;DHT22;6970;51.340;3.240;2023-02-15T00:46:34;6.00;99.90
13798;DHT22;6970;51.340;3.240;2023-02-15T00:49:03;6.00;99.90
13798;DHT22;6970;51.340;3.240;2023-02-15T00:51:30;6.00;99.90
13798;DHT22;6970;51.340;3.240;2023-02-15T00:53:57;6.10;99.90
13798;DHT22;6970;51.340;3.240;2023-02-15T00:56:24;6.00;99.90
13798;DHT22;6970;51.340;3.240;2023-02-15T00:58:51;5.90;99.90
13798;DHT22;6970;51.340;3.240;2023-02-15T01:01:20;5.80;99.90
13798;DHT22;6970;51.340;3.240;2023-02-15T01:03:47;5.70;99.90
13798;DHT22;6970;51.340;3.240;2023-02-15T01:06:15;5.70;99.90
13798;DHT22;6970;51.340;3.240;2023-02-15T01:08:44;5.60;99.90
13798;DHT22;6970;51.340;3.240;2023-02-15T01:11:16;5.60;99.90
13798;DHT22;6970;51.340;3.240;2023-02-15T01:13:54;5.60;99.90
13798;DHT22;6970;51.340;3.240;2023-02-15T01:16:23;5.60;99.90
13798;DHT22;6970;51.340;3.240;2023-02-15T01:18:50;5.70;99.90
13798;DHT22;6970;51.340;3.240;2023-02-15T01:21:21;5.70;99.90
13798;DHT22;6970;51.340;3.240;2023-02-15T01:23:49;5.70;99.90
13798;DHT22;6970;51.340;3.240;2023-02-15T01:26:16;5.70;99.90
13798;DHT22;6970;51.340;3.240;2023-02-15T01:28:44;5.70;99.90
13798;DHT22;6970;51.340;3.240;2023-02-15T01:31:15;5.80;99.90
13798;DHT22;6970;51.340;3.240;2023-02-15T01:33:42;5.90;99.90
13798;DHT22;6970;51.340;3.240;2023-02-15T01:36:10;6.00;99.90
13798;DHT22;6970;51.340;3.240;2023-02-15T01:38:36;6.10;99.90
13798;DHT22;6970;51.340;3.240;2023-02-15T01:41:04;6.10;99.90
13798;DHT22;6970;51.340;3.240;2023-02-15T01:46:35;6.20;99.90
13798;DHT22;6970;51.340;3.240;2023-02-15T01:49:14;6.30;99.90
13798;DHT22;6970;51.340;3.240;2023-02-15T01:51:44;6.40;99.90
13798;DHT22;6970;51.340;3.240;2023-02-15T01:56:45;6.40;99.90
13798;DHT22;6970;51.340;3.240;2023-02-15T01:59:17;6.40;99.90
13798;DHT22;6970;51.340;3.240;2023-02-15T02:01:45;6.40;99.90
13798;DHT22;6970;51.340;3.240;2023-02-15T02:04:35;6.40;99.90
13798;DHT22;6970;51.340;3.240;2023-02-15T02:07:07;6.40;99.90
13798;DHT22;6970;51.340;3.240;2023-02-15T02:09:36;6.40;99.90
13798;DHT22;6970;51.340;3.240;2023-02-15T02:12:03;6.40;99.90
13798;DHT22;6970;51.340;3.240;2023-02-15T02:14:31;6.40;99.90
13798;DHT22;6970;51.340;3.240;2023-02-15T02:17:05;6.30;99.90
13798;DHT22;6970;51.340;3.240;2023-02-15T02:25:22;6.20;99.90
13798;DHT22;6970;51.340;3.240;2023-02-15T02:33:48;6.00;99.90
13798;DHT22;6970;51.340;3.240;2023-02-15T02:42:27;5.60;99.90
13798;DHT22;6970;51.340;3.240;2023-02-15T02:44:43;5.60;99.90
13798;DHT22;6970;51.340;3.240;2023-02-15T02:47:56;5.50;99.90
13798;DHT22;6970;51.340;3.240;2023-02-15T02:50:09;5.50;99.90
13798;DHT22;6970;51.340;3.240;2023-02-15T02:52:46;5.60;99.90
13798;DHT22;6970;51.340;3.240;2023-02-15T02:58:35;5.50;99.90
13798;DHT22;6970;51.340;3.240;2023-02-15T03:01:11;5.40;99.90
13798;DHT22;6970;51.340;3.240;2023-02-15T03:03:52;5.40;99.90
13798;DHT22;6970;51.340;3.240;2023-02-15T03:06:28;5.40;99.90
13798;DHT22;6970;51.340;3.240;2023-02-15T03:12:17;5.20;99.90
13798;DHT22;6970;51.340;3.240;2023-02-15T03:14:48;5.10;99.90
13798;DHT22;6970;51.340;3.240;2023-02-15T03:17:17;5.10;99.90
13798;DHT22;6970;51.340;3.240;2023-02-15T03:19:48;5.00;99.90
13798;DHT22;6970;51.340;3.240;2023-02-15T03:22:21;4.90;99.90
13798;DHT22;6970;51.340;3.240;2023-02-15T03:28:03;4.70;99.90
13798;DHT22;6970;51.340;3.240;2023-02-15T03:30:32;4.60;99.90
13798;DHT22;6970;51.340;3.240;2023-02-15T03:33:02;4.40;99.90
13798;DHT22;6970;51.340;3.240;2023-02-15T03:35:53;4.30;99.90
13798;DHT22;6970;51.340;3.240;2023-02-15T03:38:33;4.20;99.90
13798;DHT22;6970;51.340;3.240;2023-02-15T03:41:03;4.10;99.90
13798;DHT22;6970;51.340;3.240;2023-02-15T03:44:00;4.10;99.90
13798;DHT22;6970;51.340;3.240;2023-02-15T03:46:33;4.10;99.90
13798;DHT22;6970;51.340;3.240;2023-02-15T03:49:08;4.10;99.90
13798;DHT22;6970;51.340;3.240;2023-02-15T03:51:40;4.10;99.90
13798;DHT22;6970;51.340;3.240;2023-02-15T03:56:38;3.90;99.90
13798;DHT22;6970;51.340;3.240;2023-02-15T03:59:05;3.90;99.90
13798;DHT22;6970;51.340;3.240;2023-02-15T04:02:11;3.90;99.90
13798;DHT22;6970;51.340;3.240;2023-02-15T04:04:46;4.00;99.90
13798;DHT22;6970;51.340;3.240;2023-02-15T04:07:13;4.00;99.90
13798;DHT22;6970;51.340;3.240;2023-02-15T04:09:40;3.90;99.90
13798;DHT22;6970;51.340;3.240;2023-02-15T04:12:25;3.90;99.90
13798;DHT22;6970;51.340;3.240;2023-02-15T04:14:52;3.90;99.90
13798;DHT22;6970;51.340;3.240;2023-02-15T04:17:38;3.90;99.90
13798;DHT22;6970;51.340;3.240;2023-02-15T04:20:05;3.90;99.90
13798;DHT22;6970;51.340;3.240;2023-02-15T04:22:51;3.90;99.90
13798;DHT22;6970;51.340;3.240;2023-02-15T04:25:36;3.80;99.90
13798;DHT22;6970;51.340;3.240;2023-02-15T04:28:03;3.70;99.90
13798;DHT22;6970;51.340;3.240;2023-02-15T04:30:30;3.60;99.90
13798;DHT22;6970;51.340;3.240;2023-02-15T04:32:57;3.50;99.90
13798;DHT22;6970;51.340;3.240;2023-02-15T04:35:25;3.30;99.90
13798;DHT22;6970;51.340;3.240;2023-02-15T04:37:52;3.30;99.90
13798;DHT22;6970;51.340;3.240;2023-02-15T04:40:19;3.20;99.90
13798;DHT22;6970;51.340;3.240;2023-02-15T04:42:49;3.20;99.90
13798;DHT22;6970;51.340;3.240;2023-02-15T04:45:17;3.30;99.90
13798;DHT22;6970;51.340;3.240;2023-02-15T04:47:44;3.30;99.90
13798;DHT22;6970;51.340;3.240;2023-02-15T04:50:11;3.30;99.90
13798;DHT22;6970;51.340;3.240;2023-02-15T04:52:38;3.20;99.90
13798;DHT22;6970;51.340;3.240;2023-02-15T04:55:06;3.20;99.90
13798;DHT22;6970;51.340;3.240;2023-02-15T04:57:33;3.10;99.90
13798;DHT22;6970;51.340;3.240;2023-02-15T05:00:00;3.10;99.90
13798;DHT22;6970;51.340;3.240;2023-02-15T05:02:27;2.90;99.90
13798;DHT22;6970;51.340;3.240;2023-02-15T05:04:54;3.00;99.90
13798;DHT22;6970;51.340;3.240;2023-02-15T05:07:21;2.90;99.90
13798;DHT22;6970;51.340;3.240;2023-02-15T05:09:48;3.00;99.90
13798;DHT22;6970;51.340;3.240;2023-02-15T05:12:15;3.00;99.90
13798;DHT22;6970;51.340;3.240;2023-02-15T05:14:42;3.00;99.90
13798;DHT22;6970;51.340;3.240;2023-02-15T05:17:09;3.00;99.90
13798;DHT22;6970;51.340;3.240;2023-02-15T05:19:36;3.00;99.90
13798;DHT22;6970;51.340;3.240;2023-02-15T05:22:03;3.00;99.90
13798;DHT22;6970;51.340;3.240;2023-02-15T05:24:30;3.00;99.90
13798;DHT22;6970;51.340;3.240;2023-02-15T05:27:15;3.00;99.90
13798;DHT22;6970;51.340;3.240;2023-02-15T05:30:01;3.10;99.90
13798;DHT22;6970;51.340;3.240;2023-02-15T05:32:28;3.10;99.90
13798;DHT22;6970;51.340;3.240;2023-02-15T05:34:55;3.10;99.90
13798;DHT22;6970;51.340;3.240;2023-02-15T05:37:22;3.10;99.90
13798;DHT22;6970;51.340;3.240;2023-02-15T05:39:49;3.10;99.90
13798;DHT22;6970;51.340;3.240;2023-02-15T05:42:16;3.00;99.90
13798;DHT22;6970;51.340;3.240;2023-02-15T05:44:43;3.00;99.90
13798;DHT22;6970;51.340;3.240;2023-02-15T05:47:10;2.90;99.90
13798;DHT22;6970;51.340;3.240;2023-02-15T05:49:38;2.90;99.90
13798;DHT22;6970;51.340;3.240;2023-02-15T05:52:05;2.90;99.90
13798;DHT22;6970;51.340;3.240;2023-02-15T05:54:32;2.80;99.90
13798;DHT22;6970;51.340;3.240;2023-02-15T05:56:59;2.80;99.90
13798;DHT22;6970;51.340;3.240;2023-02-15T05:59:25;2.80;99.90
13798;DHT22;6970;51.340;3.240;2023-02-15T06:01:52;2.80;99.90
13798;DHT22;6970;51.340;3.240;2023-02-15T06:04:20;2.80;99.90
13798;DHT22;6970;51.340;3.240;2023-02-15T06:06:47;2.80;99.90
13798;DHT22;6970;51.340;3.240;2023-02-15T06:09:14;2.90;99.90
13798;DHT22;6970;51.340;3.240;2023-02-15T06:11:41;2.90;99.90
13798;DHT22;6970;51.340;3.240;2023-02-15T06:14:08;2.90;99.90
13798;DHT22;6970;51.340;3.240;2023-02-15T06:16:34;2.90;99.90
13798;DHT22;6970;51.340;3.240;2023-02-15T06:19:02;2.90;99.90
13798;DHT22;6970;51.340;3.240;2023-02-15T06:21:30;2.90;99.90
13798;DHT22;6970;51.340;3.240;2023-02-15T06:23:58;2.90;99.90
13798;DHT22;6970;51.340;3.240;2023-02-15T06:26:25;2.90;99.90
13798;DHT22;6970;51.340;3.240;2023-02-15T06:28:52;2.90;99.90
13798;DHT22;6970;51.340;3.240;2023-02-15T06:31:19;2.90;99.90
13798;DHT22;6970;51.340;3.240;2023-02-15T06:33:46;2.90;99.90
13798;DHT22;6970;51.340;3.240;2023-02-15T06:36:13;2.90;99.90
13798;DHT22;6970;51.340;3.240;2023-02-15T06:38:41;2.90;99.90
13798;DHT22;6970;51.340;3.240;2023-02-15T06:41:08;2.90;99.90
13798;DHT22;6970;51.340;3.240;2023-02-15T06:43:35;2.90;99.90
13798;DHT22;6970;51.340;3.240;2023-02-15T06:46:02;2.90;99.90
13798;DHT22;6970;51.340;3.240;2023-02-15T06:48:29;2.90;99.90
13798;DHT22;6970;51.340;3.240;2023-02-15T06:50:56;3.00;99.90
13798;DHT22;6970;51.340;3.240;2023-02-15T06:53:23;3.00;99.90
13798;DHT22;6970;51.340;3.240;2023-02-15T06:55:50;3.00;99.90
13798;DHT22;6970;51.340;3.240;2023-02-15T06:58:17;3.10;99.90
13798;DHT22;6970;51.340;3.240;2023-02-15T07:00:44;3.10;99.90
13798;DHT22;6970;51.340;3.240;2023-02-15T07:03:13;3.10;99.90
13798;DHT22;6970;51.340;3.240;2023-02-15T07:05:40;3.20;99.90
13798;DHT22;6970;51.340;3.240;2023-02-15T07:08:07;3.20;99.90
13798;DHT22;6970;51.340;3.240;2023-02-15T07:10:34;3.20;99.90
13798;DHT22;6970;51.340;3.240;2023-02-15T07:13:01;3.30;99.90
13798;DHT22;6970;51.340;3.240;2023-02-15T07:15:28;3.40;99.90
13798;DHT22;6970;51.340;3.240;2023-02-15T07:17:57;3.40;99.90
13798;DHT22;6970;51.340;3.240;2023-02-15T07:20:25;3.50;99.90
13798;DHT22;6970;51.340;3.240;2023-02-15T07:22:52;3.60;99.90
13798;DHT22;6970;51.340;3.240;2023-02-15T07:25:20;3.80;99.90
13798;DHT22;6970;51.340;3.240;2023-02-15T07:27:47;4.10;99.90
13798;DHT22;6970;51.340;3.240;2023-02-15T07:30:16;4.60;99.90
13798;DHT22;6970;51.340;3.240;2023-02-15T07:32:44;5.00;99.90
13798;DHT22;6970;51.340;3.240;2023-02-15T07:35:33;5.20;99.90
13798;DHT22;6970;51.340;3.240;2023-02-15T07:38:00;5.30;99.90
13798;DHT22;6970;51.340;3.240;2023-02-15T07:40:27;5.50;99.90
13798;DHT22;6970;51.340;3.240;2023-02-15T07:42:57;5.50;99.90
13798;DHT22;6970;51.340;3.240;2023-02-15T07:45:25;5.60;99.90
13798;DHT22;6970;51.340;3.240;2023-02-15T07:47:53;5.80;99.90
13798;DHT22;6970;51.340;3.240;2023-02-15T07:50:20;6.10;99.90
13798;DHT22;6970;51.340;3.240;2023-02-15T07:52:47;6.40;99.90
13798;DHT22;6970;51.340;3.240;2023-02-15T07:55:14;6.90;99.90
13798;DHT22;6970;51.340;3.240;2023-02-15T07:57:46;7.40;99.90
13798;DHT22;6970;51.340;3.240;2023-02-15T08:00:15;8.00;99.90
13798;DHT22;6970;51.340;3.240;2023-02-15T08:02:50;8.40;99.90
13798;DHT22;6970;51.340;3.240;2023-02-15T08:05:38;8.90;99.90
13798;DHT22;6970;51.340;3.240;2023-02-15T08:08:06;9.60;99.90
13798;DHT22;6970;51.340;3.240;2023-02-15T08:10:35;10.40;99.90
13798;DHT22;6970;51.340;3.240;2023-02-15T08:13:21;11.10;99.90
13798;DHT22;6970;51.340;3.240;2023-02-15T08:15:51;11.40;99.90
13798;DHT22;6970;51.340;3.240;2023-02-15T08:18:18;11.70;99.90
13798;DHT22;6970;51.340;3.240;2023-02-15T08:20:51;12.10;99.90
13798;DHT22;6970;51.340;3.240;2023-02-15T08:23:18;12.40;99.90
13798;DHT22;6970;51.340;3.240;2023-02-15T08:25:45;12.70;99.90
13798;DHT22;6970;51.340;3.240;2023-02-15T08:28:12;12.60;99.90
13798;DHT22;6970;51.340;3.240;2023-02-15T08:30:39;12.90;99.90
13798;DHT22;6970;51.340;3.240;2023-02-15T08:33:06;13.00;99.90
13798;DHT22;6970;51.340;3.240;2023-02-15T08:35:33;12.60;99.90
13798;DHT22;6970;51.340;3.240;2023-02-15T08:38:01;13.00;99.90
13798;DHT22;6970;51.340;3.240;2023-02-15T08:40:28;13.40;99.90
13798;DHT22;6970;51.340;3.240;2023-02-15T08:42:55;13.70;99.90
13798;DHT22;6970;51.340;3.240;2023-02-15T08:45:22;13.80;99.90
13798;DHT22;6970;51.340;3.240;2023-02-15T08:47:51;13.70;99.90
13798;DHT22;6970;51.340;3.240;2023-02-15T08:50:18;13.50;99.90
13798;DHT22;6970;51.340;3.240;2023-02-15T08:52:45;13.00;99.90
13798;DHT22;6970;51.340;3.240;2023-02-15T08:55:12;12.70;99.90
13798;DHT22;6970;51.340;3.240;2023-02-15T08:57:39;12.50;99.90
13798;DHT22;6970;51.340;3.240;2023-02-15T09:00:11;12.20;99.90
13798;DHT22;6970;51.340;3.240;2023-02-15T09:02:38;12.10;99.90
13798;DHT22;6970;51.340;3.240;2023-02-15T09:05:06;11.90;99.90
13798;DHT22;6970;51.340;3.240;2023-02-15T09:07:33;11.90;99.90
13798;DHT22;6970;51.340;3.240;2023-02-15T09:10:00;12.10;99.90
13798;DHT22;6970;51.340;3.240;2023-02-15T09:12:26;12.30;99.90
13798;DHT22;6970;51.340;3.240;2023-02-15T09:14:53;12.60;99.90
13798;DHT22;6970;51.340;3.240;2023-02-15T09:17:20;12.70;99.90
13798;DHT22;6970;51.340;3.240;2023-02-15T09:19:48;13.10;99.90
13798;DHT22;6970;51.340;3.240;2023-02-15T09:22:14;13.40;99.90
13798;DHT22;6970;51.340;3.240;2023-02-15T09:24:41;13.80;99.90
13798;DHT22;6970;51.340;3.240;2023-02-15T09:27:08;14.30;99.90
13798;DHT22;6970;51.340;3.240;2023-02-15T09:29:35;15.00;99.90
13798;DHT22;6970;51.340;3.240;2023-02-15T09:32:02;15.80;99.30
13798;DHT22;6970;51.340;3.240;2023-02-15T09:34:30;16.60;98.20
13798;DHT22;6970;51.340;3.240;2023-02-15T09:37:00;17.30;97.10
13798;DHT22;6970;51.340;3.240;2023-02-15T09:39:27;17.70;96.10
13798;DHT22;6970;51.340;3.240;2023-02-15T10:26:33;20.50;87.10
13798;DHT22;6970;51.340;3.240;2023-02-15T10:29:09;20.70;86.20
13798;DHT22;6970;51.340;3.240;2023-02-15T10:31:51;20.80;85.60
13798;DHT22;6970;51.340;3.240;2023-02-15T10:37:44;20.90;84.60
13798;DHT22;6970;51.340;3.240;2023-02-15T10:43:23;20.60;84.40
13798;DHT22;6970;51.340;3.240;2023-02-15T10:45:49;20.40;84.70
13798;DHT22;6970;51.340;3.240;2023-02-15T10:48:22;20.30;85.00
13798;DHT22;6970;51.340;3.240;2023-02-15T10:50:53;20.20;84.30
13798;DHT22;6970;51.340;3.240;2023-02-15T10:56:28;19.70;85.20
13798;DHT22;6970;51.340;3.240;2023-02-15T11:04:17;18.60;87.50
13798;DHT22;6970;51.340;3.240;2023-02-15T11:06:56;18.40;88.30
13798;DHT22;6970;51.340;3.240;2023-02-15T11:09:32;18.50;89.40
13798;DHT22;6970;51.340;3.240;2023-02-15T11:12:00;18.80;89.60
13798;DHT22;6970;51.340;3.240;2023-02-15T11:14:49;19.10;87.40
13798;DHT22;6970;51.340;3.240;2023-02-15T11:17:22;19.50;88.20
13798;DHT22;6970;51.340;3.240;2023-02-15T11:22:48;20.60;86.00
13798;DHT22;6970;51.340;3.240;2023-02-15T11:25:20;21.00;84.00
13798;DHT22;6970;51.340;3.240;2023-02-15T11:27:49;20.80;83.40
13798;DHT22;6970;51.340;3.240;2023-02-15T11:30:21;20.70;84.10
13798;DHT22;6970;51.340;3.240;2023-02-15T11:32:57;20.60;84.90
13798;DHT22;6970;51.340;3.240;2023-02-15T11:35:37;20.40;83.90
13798;DHT22;6970;51.340;3.240;2023-02-15T11:38:29;20.00;84.90
13798;DHT22;6970;51.340;3.240;2023-02-15T11:41:14;19.50;85.20
13798;DHT22;6970;51.340;3.240;2023-02-15T11:43:56;18.90;86.80
13798;DHT22;6970;51.340;3.240;2023-02-15T11:46:24;18.40;88.10
13798;DHT22;6970;51.340;3.240;2023-02-15T11:48:52;17.80;89.60
13798;DHT22;6970;51.340;3.240;2023-02-15T11:51:21;17.20;90.50
13798;DHT22;6970;51.340;3.240;2023-02-15T11:53:50;16.80;91.30
13798;DHT22;6970;51.340;3.240;2023-02-15T11:56:27;16.30;92.10
13798;DHT22;6970;51.340;3.240;2023-02-15T11:59:02;16.20;92.70
13798;DHT22;6970;51.340;3.240;2023-02-15T12:01:37;16.20;93.00
13798;DHT22;6970;51.340;3.240;2023-02-15T12:09:33;16.20;93.10
13798;DHT22;6970;51.340;3.240;2023-02-15T12:12:34;16.50;93.00
13798;DHT22;6970;51.340;3.240;2023-02-15T12:15:04;16.70;92.60
13798;DHT22;6970;51.340;3.240;2023-02-15T12:17:50;16.90;92.20
13798;DHT22;6970;51.340;3.240;2023-02-15T12:22:59;17.00;92.40
13798;DHT22;6970;51.340;3.240;2023-02-15T12:28:02;17.40;92.40
13798;DHT22;6970;51.340;3.240;2023-02-15T12:30:35;17.70;92.00
13798;DHT22;6970;51.340;3.240;2023-02-15T12:35:41;17.80;91.00
13798;DHT22;6970;51.340;3.240;2023-02-15T12:40:38;17.80;91.10
13798;DHT22;6970;51.340;3.240;2023-02-15T12:43:44;17.80;91.10
13798;DHT22;6970;51.340;3.240;2023-02-15T12:46:25;18.00;90.60
13798;DHT22;6970;51.340;3.240;2023-02-15T12:51:52;17.90;90.10
13798;DHT22;6970;51.340;3.240;2023-02-15T12:56:49;18.10;90.20
13798;DHT22;6970;51.340;3.240;2023-02-15T12:59:17;18.10;89.60
13798;DHT22;6970;51.340;3.240;2023-02-15T13:01:50;18.20;89.40
13798;DHT22;6970;51.340;3.240;2023-02-15T13:04:30;18.20;89.60
13798;DHT22;6970;51.340;3.240;2023-02-15T13:07:01;18.10;88.70
13798;DHT22;6970;51.340;3.240;2023-02-15T13:12:21;18.10;89.10
13798;DHT22;6970;51.340;3.240;2023-02-15T13:14:51;18.00;89.20
13798;DHT22;6970;51.340;3.240;2023-02-15T13:17:27;17.80;89.80
13798;DHT22;6970;51.340;3.240;2023-02-15T13:20:02;17.70;90.20
13798;DHT22;6970;51.340;3.240;2023-02-15T13:22:41;17.60;89.80
13798;DHT22;6970;51.340;3.240;2023-02-15T13:25:24;17.60;89.20
13798;DHT22;6970;51.340;3.240;2023-02-15T13:27:54;17.70;89.70
13798;DHT22;6970;51.340;3.240;2023-02-15T13:32:57;17.50;90.00
13798;DHT22;6970;51.340;3.240;2023-02-15T13:35:26;17.30;90.00
13798;DHT22;6970;51.340;3.240;2023-02-15T13:38:27;17.30;89.70
13798;DHT22;6970;51.340;3.240;2023-02-15T13:41:04;17.00;90.00
13798;DHT22;6970;51.340;3.240;2023-02-15T13:49:58;16.50;90.60
13798;DHT22;6970;51.340;3.240;2023-02-15T13:52:34;16.20;91.10
13798;DHT22;6970;51.340;3.240;2023-02-15T14:09:35;15.50;92.30
13798;DHT22;6970;51.340;3.240;2023-02-15T14:22:44;15.10;92.40
13798;DHT22;6970;51.340;3.240;2023-02-15T14:27:54;15.10;92.60
13798;DHT22;6970;51.340;3.240;2023-02-15T14:30:24;15.20;92.60
13798;DHT22;6970;51.340;3.240;2023-02-15T14:32:56;15.20;92.60
13798;DHT22;6970;51.340;3.240;2023-02-15T14:35:28;15.20;92.30
13798;DHT22;6970;51.340;3.240;2023-02-15T14:41:19;15.00;92.50
13798;DHT22;6970;51.340;3.240;2023-02-15T14:46:45;14.80;92.40
13798;DHT22;6970;51.340;3.240;2023-02-15T14:49:16;14.80;92.50
13798;DHT22;6970;51.340;3.240;2023-02-15T14:56:45;14.60;92.40
13798;DHT22;6970;51.340;3.240;2023-02-15T14:59:19;14.50;92.50
13798;DHT22;6970;51.340;3.240;2023-02-15T15:02:09;14.50;92.50
13798;DHT22;6970;51.340;3.240;2023-02-15T15:07:41;14.40;92.40
13798;DHT22;6970;51.340;3.240;2023-02-15T15:18:08;14.10;93.00
13798;DHT22;6970;51.340;3.240;2023-02-15T15:20:49;14.00;93.10
13798;DHT22;6970;51.340;3.240;2023-02-15T15:26:23;14.00;93.50
13798;DHT22;6970;51.340;3.240;2023-02-15T15:34:19;13.80;94.40
13798;DHT22;6970;51.340;3.240;2023-02-15T15:37:18;13.80;94.30
13798;DHT22;6970;51.340;3.240;2023-02-15T15:48:40;13.90;94.20
13798;DHT22;6970;51.340;3.240;2023-02-15T15:51:20;13.80;94.10
13798;DHT22;6970;51.340;3.240;2023-02-15T15:53:49;13.80;94.30
13798;DHT22;6970;51.340;3.240;2023-02-15T15:56:23;13.70;94.70
13798;DHT22;6970;51.340;3.240;2023-02-15T15:58:54;13.70;95.00
13798;DHT22;6970;51.340;3.240;2023-02-15T16:01:30;13.80;95.10
13798;DHT22;6970;51.340;3.240;2023-02-15T16:04:01;13.80;95.10
13798;DHT22;6970;51.340;3.240;2023-02-15T16:06:36;13.80;95.10
13798;DHT22;6970;51.340;3.240;2023-02-15T16:09:17;13.60;95.20
13798;DHT22;6970;51.340;3.240;2023-02-15T16:11:50;13.60;95.40
13798;DHT22;6970;51.340;3.240;2023-02-15T16:16:59;13.70;95.50
13798;DHT22;6970;51.340;3.240;2023-02-15T16:19:36;13.70;95.30
13798;DHT22;6970;51.340;3.240;2023-02-15T16:22:20;13.70;95.30
13798;DHT22;6970;51.340;3.240;2023-02-15T16:27:52;13.50;95.50
13798;DHT22;6970;51.340;3.240;2023-02-15T16:30:31;13.40;95.70
13798;DHT22;6970;51.340;3.240;2023-02-15T16:33:15;13.30;95.80
13798;DHT22;6970;51.340;3.240;2023-02-15T16:35:58;13.30;95.90
13798;DHT22;6970;51.340;3.240;2023-02-15T16:41:13;13.20;96.10
13798;DHT22;6970;51.340;3.240;2023-02-15T16:43:45;13.10;96.20
13798;DHT22;6970;51.340;3.240;2023-02-15T16:46:18;13.00;96.30
13798;DHT22;6970;51.340;3.240;2023-02-15T16:48:49;13.00;96.50
13798;DHT22;6970;51.340;3.240;2023-02-15T16:51:29;12.80;96.60
13798;DHT22;6970;51.340;3.240;2023-02-15T16:54:05;12.80;96.60
13798;DHT22;6970;51.340;3.240;2023-02-15T16:56:33;12.60;96.60
13798;DHT22;6970;51.340;3.240;2023-02-15T16:59:01;12.60;96.60
13798;DHT22;6970;51.340;3.240;2023-02-15T17:01:30;12.50;96.60
13798;DHT22;6970;51.340;3.240;2023-02-15T17:07:13;12.30;96.50
13798;DHT22;6970;51.340;3.240;2023-02-15T17:09:55;12.20;96.70
13798;DHT22;6970;51.340;3.240;2023-02-15T17:12:45;12.20;96.90
13798;DHT22;6970;51.340;3.240;2023-02-15T17:15:35;12.10;97.00
13798;DHT22;6970;51.340;3.240;2023-02-15T17:18:22;12.10;97.00
13798;DHT22;6970;51.340;3.240;2023-02-15T17:20:52;12.00;97.10
13798;DHT22;6970;51.340;3.240;2023-02-15T17:25:47;11.90;97.20
13798;DHT22;6970;51.340;3.240;2023-02-15T17:28:19;11.90;97.30
13798;DHT22;6970;51.340;3.240;2023-02-15T17:30:47;11.80;97.60
13798;DHT22;6970;51.340;3.240;2023-02-15T17:33:37;11.70;97.90
13798;DHT22;6970;51.340;3.240;2023-02-15T17:36:12;11.70;98.40
13798;DHT22;6970;51.340;3.240;2023-02-15T17:41:26;11.50;98.70
13798;DHT22;6970;51.340;3.240;2023-02-15T17:43:53;11.50;98.90
13798;DHT22;6970;51.340;3.240;2023-02-15T17:46:21;11.50;99.10
13798;DHT22;6970;51.340;3.240;2023-02-15T17:48:53;11.40;99.40
13798;DHT22;6970;51.340;3.240;2023-02-15T17:51:22;11.30;99.70
13798;DHT22;6970;51.340;3.240;2023-02-15T17:53:49;11.20;99.90
13798;DHT22;6970;51.340;3.240;2023-02-15T17:56:36;11.20;99.90
13798;DHT22;6970;51.340;3.240;2023-02-15T17:59:04;11.20;99.90
13798;DHT22;6970;51.340;3.240;2023-02-15T18:01:41;11.10;99.90
13798;DHT22;6970;51.340;3.240;2023-02-15T18:04:28;11.10;99.90
13798;DHT22;6970;51.340;3.240;2023-02-15T18:07:15;11.10;99.90
13798;DHT22;6970;51.340;3.240;2023-02-15T18:10:15;11.00;99.90
13798;DHT22;6970;51.340;3.240;2023-02-15T18:13:02;11.00;99.90
13798;DHT22;6970;51.340;3.240;2023-02-15T18:15:30;10.90;99.90
13798;DHT22;6970;51.340;3.240;2023-02-15T18:17:57;10.80;99.90
13798;DHT22;6970;51.340;3.240;2023-02-15T18:20:30;10.80;99.90
13798;DHT22;6970;51.340;3.240;2023-02-15T18:22:57;10.70;99.90
13798;DHT22;6970;51.340;3.240;2023-02-15T18:25:24;10.70;99.90
13798;DHT22;6970;51.340;3.240;2023-02-15T18:27:51;10.60;99.90
13798;DHT22;6970;51.340;3.240;2023-02-15T18:30:22;10.60;99.90
13798;DHT22;6970;51.340;3.240;2023-02-15T18:32:53;10.50;99.90
13798;DHT22;6970;51.340;3.240;2023-02-15T18:35:24;10.50;99.90
13798;DHT22;6970;51.340;3.240;2023-02-15T18:37:52;10.40;99.90
13798;DHT22;6970;51.340;3.240;2023-02-15T18:40:22;10.40;99.90
13798;DHT22;6970;51.340;3.240;2023-02-15T18:42:50;10.30;99.90
13798;DHT22;6970;51.340;3.240;2023-02-15T18:45:18;10.30;99.90
13798;DHT22;6970;51.340;3.240;2023-02-15T18:47:47;10.20;99.90
13798;DHT22;6970;51.340;3.240;2023-02-15T18:50:16;10.20;99.90
13798;DHT22;6970;51.340;3.240;2023-02-15T18:52:45;10.10;99.90
13798;DHT22;6970;51.340;3.240;2023-02-15T18:55:22;10.10;99.90
13798;DHT22;6970;51.340;3.240;2023-02-15T18:57:53;10.10;99.90
13798;DHT22;6970;51.340;3.240;2023-02-15T19:00:22;10.10;99.90
13798;DHT22;6970;51.340;3.240;2023-02-15T19:02:55;10.10;99.90
13798;DHT22;6970;51.340;3.240;2023-02-15T19:05:23;10.10;99.90
13798;DHT22;6970;51.340;3.240;2023-02-15T19:07:51;10.10;99.90
13798;DHT22;6970;51.340;3.240;2023-02-15T19:10:24;10.10;99.90
13798;DHT22;6970;51.340;3.240;2023-02-15T19:12:52;10.10;99.90
13798;DHT22;6970;51.340;3.240;2023-02-15T19:15:22;10.10;99.90
13798;DHT22;6970;51.340;3.240;2023-02-15T19:17:49;10.00;99.90
13798;DHT22;6970;51.340;3.240;2023-02-15T19:22:47;10.00;99.90
13798;DHT22;6970;51.340;3.240;2023-02-15T19:25:19;9.90;99.90
13798;DHT22;6970;51.340;3.240;2023-02-15T19:27:46;9.90;99.90
13798;DHT22;6970;51.340;3.240;2023-02-15T19:30:15;9.90;99.90
13798;DHT22;6970;51.340;3.240;2023-02-15T19:32:43;9.90;99.90
13798;DHT22;6970;51.340;3.240;2023-02-15T19:35:19;9.90;99.90
13798;DHT22;6970;51.340;3.240;2023-02-15T19:37:54;9.90;99.90
13798;DHT22;6970;51.340;3.240;2023-02-15T19:40:26;9.90;99.90
13798;DHT22;6970;51.340;3.240;2023-02-15T19:42:54;9.90;99.90
13798;DHT22;6970;51.340;3.240;2023-02-15T19:45:23;9.90;99.90
13798;DHT22;6970;51.340;3.240;2023-02-15T19:47:51;9.90;99.90
13798;DHT22;6970;51.340;3.240;2023-02-15T19:50:22;9.90;99.90
13798;DHT22;6970;51.340;3.240;2023-02-15T19:52:50;9.90;99.90
13798;DHT22;6970;51.340;3.240;2023-02-15T19:57:50;9.90;99.90
13798;DHT22;6970;51.340;3.240;2023-02-15T20:00:20;9.90;99.90
13798;DHT22;6970;51.340;3.240;2023-02-15T20:02:48;9.80;99.90